createdAt,value
2018-03-25T00:00:57.537Z,0
2018-03-25T00:02:06.648Z,0
2018-03-25T00:03:15.780Z,0
2018-03-25T00:04:24.615Z,0
2018-03-25T00:05:33.448Z,0
2018-03-25T00:06:42.282Z,0
2018-03-25T00:07:51.387Z,0
2018-03-25T00:09:00.518Z,0
2018-03-25T00:10:09.351Z,0
2018-03-25T00:11:18.181Z,0
2018-03-25T00:12:27.296Z,0
2018-03-25T00:13:36.133Z,0
2018-03-25T00:14:45.063Z,0
2018-03-25T00:15:53.894Z,0
2018-03-25T00:17:02.727Z,0
2018-03-25T00:18:11.561Z,0
2018-03-25T00:19:20.391Z,0
2018-03-25T00:20:29.220Z,0
2018-03-25T00:21:38.054Z,0
2018-03-25T00:22:46.886Z,0
2018-03-25T00:23:55.718Z,0
2018-03-25T00:25:04.553Z,0
2018-03-25T00:26:13.631Z,0
2018-03-25T00:27:22.463Z,0
2018-03-25T00:28:31.295Z,0
2018-03-25T00:29:40.127Z,0
2018-03-25T00:30:48.958Z,0
2018-03-25T00:31:58.073Z,0
2018-03-25T00:33:06.906Z,0
2018-03-25T00:34:15.737Z,0
2018-03-25T00:35:24.568Z,0
2018-03-25T00:36:33.401Z,0
2018-03-25T00:37:42.485Z,0
2018-03-25T00:38:51.611Z,0
2018-03-25T00:40:00.443Z,0
2018-03-25T00:41:09.276Z,0
2018-03-25T00:42:18.109Z,0
2018-03-25T00:43:27.090Z,0
2018-03-25T00:44:35.924Z,0
2018-03-25T00:45:45.034Z,0
2018-03-25T00:46:53.864Z,0
2018-03-25T00:48:02.702Z,0
2018-03-25T00:49:11.582Z,0
2018-03-25T00:50:20.416Z,0
2018-03-25T00:51:29.525Z,0
2018-03-25T00:52:38.360Z,0
2018-03-25T00:53:47.188Z,0
2018-03-25T00:54:56.020Z,0
2018-03-25T00:56:04.853Z,0
2018-03-25T00:57:13.686Z,0
2018-03-25T00:58:22.795Z,0
2018-03-25T00:59:31.627Z,0
2018-03-25T01:00:40.610Z,0
2018-03-25T01:01:49.439Z,0
2018-03-25T01:02:58.271Z,0
2018-03-25T01:04:07.102Z,0
2018-03-25T01:05:15.932Z,0
2018-03-25T01:06:24.770Z,0
2018-03-25T01:07:33.597Z,0
2018-03-25T01:08:42.428Z,0
2018-03-25T01:09:51.537Z,0
2018-03-25T01:11:00.371Z,0
2018-03-25T01:12:09.204Z,0
2018-03-25T01:13:18.035Z,0
2018-03-25T01:14:26.877Z,0
2018-03-25T01:15:35.702Z,0
2018-03-25T01:16:44.533Z,0
2018-03-25T01:17:53.666Z,0
2018-03-25T01:19:02.504Z,0
2018-03-25T01:20:11.330Z,0
2018-03-25T01:21:20.160Z,0
2018-03-25T01:22:28.993Z,0
2018-03-25T01:23:37.877Z,0
2018-03-25T01:24:46.712Z,0
2018-03-25T01:25:55.544Z,0
2018-03-25T01:27:04.649Z,0
2018-03-25T01:28:13.829Z,0
2018-03-25T01:29:22.760Z,0
2018-03-25T01:30:31.594Z,0
2018-03-25T01:31:40.429Z,0
2018-03-25T01:32:49.260Z,0
2018-03-25T01:33:58.091Z,0
2018-03-25T01:35:06.925Z,0
2018-03-25T01:36:15.760Z,0
2018-03-25T01:37:24.880Z,0
2018-03-25T01:38:33.710Z,0
2018-03-25T01:39:42.543Z,0
2018-03-25T01:40:51.376Z,0
2018-03-25T01:42:00.209Z,0
2018-03-25T01:43:09.044Z,0
2018-03-25T01:44:17.870Z,0
2018-03-25T01:45:26.701Z,0
2018-03-25T01:46:35.533Z,0
2018-03-25T01:47:44.642Z,0
2018-03-25T01:48:53.474Z,0
2018-03-25T01:50:02.307Z,0
2018-03-25T01:51:11.146Z,0
2018-03-25T01:52:20.127Z,0
2018-03-25T01:53:28.960Z,0
2018-03-25T01:54:38.079Z,0
2018-03-25T01:55:46.914Z,0
2018-03-25T01:56:55.745Z,0
2018-03-25T01:58:04.576Z,0
2018-03-25T01:59:13.408Z,0
2018-03-25T02:00:22.236Z,0
2018-03-25T02:01:31.067Z,0
2018-03-25T02:02:39.900Z,0
2018-03-25T02:03:48.886Z,0
2018-03-25T02:04:57.719Z,0
2018-03-25T02:06:07.102Z,0
2018-03-25T02:07:15.934Z,0
2018-03-25T02:08:25.320Z,0
2018-03-25T02:09:34.450Z,0
2018-03-25T02:10:43.285Z,0
2018-03-25T02:11:52.114Z,0
2018-03-25T02:13:00.946Z,0
2018-03-25T02:14:09.777Z,0
2018-03-25T02:15:18.609Z,0
2018-03-25T02:16:27.442Z,0
2018-03-25T02:17:36.276Z,0
2018-03-25T02:18:45.438Z,0
2018-03-25T02:19:54.272Z,0
2018-03-25T02:21:03.105Z,0
2018-03-25T02:22:11.937Z,0
2018-03-25T02:23:20.767Z,0
2018-03-25T02:24:29.876Z,0
2018-03-25T02:25:38.710Z,0
2018-03-25T02:26:47.590Z,0
2018-03-25T02:27:56.727Z,0
2018-03-25T02:29:05.543Z,0
2018-03-25T02:30:14.373Z,0
2018-03-25T02:31:23.209Z,0
2018-03-25T02:32:32.043Z,0
2018-03-25T02:33:41.154Z,0
2018-03-25T02:34:49.993Z,0
2018-03-25T02:35:58.820Z,0
2018-03-25T02:37:07.927Z,0
2018-03-25T02:38:16.912Z,0
2018-03-25T02:39:25.752Z,0
2018-03-25T02:40:34.583Z,0
2018-03-25T02:41:43.414Z,0
2018-03-25T02:42:52.250Z,0
2018-03-25T02:44:01.081Z,0
2018-03-25T02:45:09.913Z,0
2018-03-25T02:46:18.746Z,0
2018-03-25T02:47:27.581Z,0
2018-03-25T02:48:36.412Z,0
2018-03-25T02:49:45.394Z,0
2018-03-25T02:50:54.509Z,0
2018-03-25T02:52:03.347Z,0
2018-03-25T02:53:12.456Z,0
2018-03-25T02:54:21.281Z,0
2018-03-25T02:55:30.552Z,0
2018-03-25T02:56:39.670Z,0
2018-03-25T02:57:48.510Z,0
2018-03-25T02:58:57.618Z,0
2018-03-25T03:00:06.739Z,0
2018-03-25T03:01:15.725Z,0
2018-03-25T03:02:24.571Z,0
2018-03-25T03:03:33.397Z,0
2018-03-25T03:04:42.235Z,0
2018-03-25T03:05:51.347Z,0
2018-03-25T03:07:00.179Z,0
2018-03-25T03:08:09.011Z,0
2018-03-25T03:09:18.125Z,0
2018-03-25T03:10:27.229Z,0
2018-03-25T03:11:36.064Z,0
2018-03-25T03:12:45.338Z,0
2018-03-25T03:13:54.442Z,0
2018-03-25T03:15:03.274Z,0
2018-03-25T03:16:12.107Z,0
2018-03-25T03:17:20.939Z,0
2018-03-25T03:18:29.824Z,0
2018-03-25T03:19:38.661Z,0
2018-03-25T03:20:47.491Z,0
2018-03-25T03:21:56.323Z,0
2018-03-25T03:23:05.154Z,0
2018-03-25T03:24:14.237Z,0
2018-03-25T03:25:23.343Z,0
2018-03-25T03:26:32.176Z,0
2018-03-25T03:27:41.001Z,0
2018-03-25T03:28:49.834Z,0
2018-03-25T03:29:58.668Z,0
2018-03-25T03:31:07.502Z,0
2018-03-25T03:32:16.337Z,0
2018-03-25T03:33:25.169Z,0
2018-03-25T03:34:34.277Z,0
2018-03-25T03:35:43.219Z,0
2018-03-25T03:36:52.040Z,0
2018-03-25T03:38:00.871Z,0
2018-03-25T03:39:09.706Z,0
2018-03-25T03:40:18.539Z,0
2018-03-25T03:41:27.368Z,0
2018-03-25T03:42:36.198Z,0
2018-03-25T03:43:45.028Z,0
2018-03-25T03:44:53.861Z,0
2018-03-25T03:46:02.692Z,0
2018-03-25T03:47:11.523Z,0
2018-03-25T03:48:20.355Z,0
2018-03-25T03:49:29.184Z,0
2018-03-25T03:50:38.014Z,0
2018-03-25T03:51:46.843Z,0
2018-03-25T03:52:55.976Z,0
2018-03-25T03:54:04.806Z,0
2018-03-25T03:55:13.636Z,0
2018-03-25T03:56:22.475Z,0
2018-03-25T03:57:31.575Z,0
2018-03-25T03:58:40.606Z,0
2018-03-25T03:59:49.391Z,0
2018-03-25T04:00:58.222Z,0
2018-03-25T04:02:07.057Z,0
2018-03-25T04:03:15.889Z,0
2018-03-25T04:04:24.721Z,0
2018-03-25T04:05:33.551Z,0
2018-03-25T04:06:42.386Z,0
2018-03-25T04:07:51.214Z,0
2018-03-25T04:09:00.061Z,0
2018-03-25T04:10:09.176Z,0
2018-03-25T04:11:18.007Z,0
2018-03-25T04:12:26.835Z,0
2018-03-25T04:13:35.666Z,0
2018-03-25T04:14:44.498Z,0
2018-03-25T04:15:53.431Z,0
2018-03-25T04:17:02.538Z,0
2018-03-25T04:18:11.370Z,0
2018-03-25T04:19:20.480Z,0
2018-03-25T04:20:29.308Z,0
2018-03-25T04:21:38.342Z,0
2018-03-25T04:22:47.172Z,0
2018-03-25T04:23:56.008Z,0
2018-03-25T04:25:04.834Z,0
2018-03-25T04:26:13.944Z,0
2018-03-25T04:27:22.924Z,0
2018-03-25T04:28:31.756Z,0
2018-03-25T04:29:40.877Z,0
2018-03-25T04:30:49.709Z,0
2018-03-25T04:31:58.539Z,0
2018-03-25T04:33:07.521Z,0
2018-03-25T04:34:16.629Z,0
2018-03-25T04:35:25.457Z,0
2018-03-25T04:36:34.289Z,0
2018-03-25T04:37:43.122Z,0
2018-03-25T04:38:52.328Z,0
2018-03-25T04:40:01.163Z,0
2018-03-25T04:41:09.999Z,0
2018-03-25T04:42:18.827Z,0
2018-03-25T04:43:27.658Z,0
2018-03-25T04:44:36.540Z,0
2018-03-25T04:45:45.376Z,0
2018-03-25T04:46:54.206Z,0
2018-03-25T04:48:03.038Z,0
2018-03-25T04:49:12.143Z,0
2018-03-25T04:50:21.022Z,0
2018-03-25T04:51:30.131Z,4
2018-03-25T04:52:39.239Z,4
2018-03-25T04:53:48.073Z,0
2018-03-25T04:54:56.905Z,4
2018-03-25T04:56:06.001Z,4
2018-03-25T04:57:15.112Z,0
2018-03-25T04:58:24.493Z,4
2018-03-25T04:59:33.322Z,4
2018-03-25T05:00:42.159Z,4
2018-03-25T05:01:50.985Z,8
2018-03-25T05:02:59.814Z,8
2018-03-25T05:04:08.644Z,8
2018-03-25T05:05:17.475Z,12
2018-03-25T05:06:26.305Z,12
2018-03-25T05:07:35.188Z,16
2018-03-25T05:08:44.018Z,16
2018-03-25T05:09:52.851Z,16
2018-03-25T05:11:01.683Z,20
2018-03-25T05:12:10.514Z,20
2018-03-25T05:13:19.773Z,24
2018-03-25T05:14:28.603Z,28
2018-03-25T05:15:37.437Z,32
2018-03-25T05:16:46.264Z,36
2018-03-25T05:17:55.095Z,36
2018-03-25T05:19:04.227Z,44
2018-03-25T05:20:13.059Z,48
2018-03-25T05:21:21.887Z,56
2018-03-25T05:22:30.722Z,60
2018-03-25T05:23:39.554Z,64
2018-03-25T05:24:48.490Z,72
2018-03-25T05:25:57.318Z,80
2018-03-25T05:27:06.162Z,88
2018-03-25T05:28:15.319Z,96
2018-03-25T05:29:24.154Z,108
2018-03-25T05:30:32.987Z,116
2018-03-25T05:31:41.819Z,124
2018-03-25T05:32:50.650Z,140
2018-03-25T05:33:59.761Z,148
2018-03-25T05:35:08.867Z,160
2018-03-25T05:36:17.753Z,172
2018-03-25T05:37:26.861Z,184
2018-03-25T05:38:35.695Z,196
2018-03-25T05:39:44.530Z,208
2018-03-25T05:40:53.362Z,224
2018-03-25T05:42:02.482Z,240
2018-03-25T05:43:11.314Z,252
2018-03-25T05:44:20.148Z,260
2018-03-25T05:45:28.977Z,272
2018-03-25T05:46:37.810Z,288
2018-03-25T05:47:46.939Z,304
2018-03-25T05:48:55.773Z,320
2018-03-25T05:50:04.604Z,340
2018-03-25T05:51:13.436Z,356
2018-03-25T05:52:22.266Z,372
2018-03-25T05:53:31.251Z,388
2018-03-25T05:54:40.078Z,408
2018-03-25T05:55:48.911Z,424
2018-03-25T05:56:57.740Z,436
2018-03-25T05:58:06.573Z,456
2018-03-25T05:59:15.555Z,468
2018-03-25T06:00:24.389Z,484
2018-03-25T06:01:33.217Z,504
2018-03-25T06:02:42.048Z,516
2018-03-25T06:03:51.158Z,524
2018-03-25T06:05:00.290Z,536
2018-03-25T06:06:09.122Z,556
2018-03-25T06:07:17.954Z,572
2018-03-25T06:08:27.064Z,576
2018-03-25T06:09:35.893Z,588
2018-03-25T06:10:44.774Z,608
2018-03-25T06:11:53.607Z,624
2018-03-25T06:13:02.487Z,636
2018-03-25T06:14:11.318Z,656
2018-03-25T06:15:20.152Z,680
2018-03-25T06:16:29.085Z,712
2018-03-25T06:17:37.921Z,736
2018-03-25T06:18:46.748Z,744
2018-03-25T06:19:55.579Z,760
2018-03-25T06:21:04.688Z,796
2018-03-25T06:22:13.947Z,840
2018-03-25T06:23:22.792Z,856
2018-03-25T06:24:31.611Z,868
2018-03-25T06:25:40.449Z,892
2018-03-25T06:26:49.281Z,920
2018-03-25T06:27:58.218Z,932
2018-03-25T06:29:07.056Z,940
2018-03-25T06:30:15.889Z,952
2018-03-25T06:31:24.716Z,960
2018-03-25T06:32:33.548Z,972
2018-03-25T06:33:42.533Z,1012
2018-03-25T06:34:51.359Z,1044
2018-03-25T06:36:00.190Z,1048
2018-03-25T06:37:09.300Z,1048
2018-03-25T06:38:18.129Z,1060
2018-03-25T06:39:27.237Z,1092
2018-03-25T06:40:36.067Z,1112
2018-03-25T06:41:44.898Z,1124
2018-03-25T06:42:53.738Z,1128
2018-03-25T06:44:02.842Z,1136
2018-03-25T06:45:11.974Z,1140
2018-03-25T06:46:20.809Z,1136
2018-03-25T06:47:29.641Z,1148
2018-03-25T06:48:38.508Z,1192
2018-03-25T06:49:47.585Z,1224
2018-03-25T06:50:56.666Z,1236
2018-03-25T06:52:05.502Z,1260
2018-03-25T06:53:14.886Z,1320
2018-03-25T06:54:23.717Z,1384
2018-03-25T06:55:32.824Z,1408
2018-03-25T06:56:41.655Z,1428
2018-03-25T06:57:50.769Z,1464
2018-03-25T06:58:59.600Z,1500
2018-03-25T07:00:08.434Z,1520
2018-03-25T07:01:17.819Z,1548
2018-03-25T07:02:27.030Z,1592
2018-03-25T07:03:35.861Z,1644
2018-03-25T07:04:44.978Z,1684
2018-03-25T07:05:54.097Z,1704
2018-03-25T07:07:03.208Z,1708
2018-03-25T07:08:12.193Z,1736
2018-03-25T07:09:21.303Z,1792
2018-03-25T07:10:30.411Z,1840
2018-03-25T07:11:39.254Z,1848
2018-03-25T07:12:48.122Z,1796
2018-03-25T07:13:57.256Z,1760
2018-03-25T07:15:06.088Z,1828
2018-03-25T07:16:14.919Z,1916
2018-03-25T07:17:23.749Z,1956
2018-03-25T07:18:32.584Z,1996
2018-03-25T07:19:41.518Z,2044
2018-03-25T07:20:50.351Z,2072
2018-03-25T07:21:59.183Z,2108
2018-03-25T07:23:08.021Z,2140
2018-03-25T07:24:16.853Z,2148
2018-03-25T07:25:25.736Z,2140
2018-03-25T07:26:34.569Z,2164
2018-03-25T07:27:43.402Z,2208
2018-03-25T07:28:52.240Z,2248
2018-03-25T07:30:01.349Z,2272
2018-03-25T07:31:10.232Z,2288
2018-03-25T07:32:19.061Z,2316
2018-03-25T07:33:27.896Z,2320
2018-03-25T07:34:36.729Z,2312
2018-03-25T07:35:45.564Z,2328
2018-03-25T07:36:54.547Z,2356
2018-03-25T07:38:03.380Z,2376
2018-03-25T07:39:12.212Z,2404
2018-03-25T07:40:21.047Z,2424
2018-03-25T07:41:29.880Z,2452
2018-03-25T07:42:39.018Z,2488
2018-03-25T07:43:48.405Z,2492
2018-03-25T07:44:57.235Z,2488
2018-03-25T07:46:06.066Z,2516
2018-03-25T07:47:14.898Z,2560
2018-03-25T07:48:23.731Z,2588
2018-03-25T07:49:32.564Z,2588
2018-03-25T07:50:41.680Z,2600
2018-03-25T07:51:50.506Z,2620
2018-03-25T07:52:59.335Z,2616
2018-03-25T07:54:08.269Z,2624
2018-03-25T07:55:17.102Z,2684
2018-03-25T07:56:25.937Z,2760
2018-03-25T07:57:34.770Z,2768
2018-03-25T07:58:43.603Z,2768
2018-03-25T07:59:52.683Z,2796
2018-03-25T08:01:01.515Z,2828
2018-03-25T08:02:10.348Z,2896
2018-03-25T08:03:19.179Z,2968
2018-03-25T08:04:28.010Z,2992
2018-03-25T08:05:37.226Z,3040
2018-03-25T08:06:46.347Z,3092
2018-03-25T08:07:55.457Z,3144
2018-03-25T08:09:04.291Z,3204
2018-03-25T08:10:13.128Z,3280
2018-03-25T08:11:22.159Z,3356
2018-03-25T08:12:31.272Z,3424
2018-03-25T08:13:40.105Z,3484
2018-03-25T08:14:48.937Z,3532
2018-03-25T08:15:57.773Z,3556
2018-03-25T08:17:06.755Z,3588
2018-03-25T08:18:15.591Z,3620
2018-03-25T08:19:24.426Z,3644
2018-03-25T08:20:33.257Z,3672
2018-03-25T08:21:42.092Z,3704
2018-03-25T08:22:50.975Z,3732
2018-03-25T08:23:59.808Z,3768
2018-03-25T08:25:08.641Z,3844
2018-03-25T08:26:17.475Z,3940
2018-03-25T08:27:26.309Z,4032
2018-03-25T08:28:35.192Z,4080
2018-03-25T08:29:44.027Z,4092
2018-03-25T08:30:52.862Z,4112
2018-03-25T08:32:01.695Z,4172
2018-03-25T08:33:10.528Z,4248
2018-03-25T08:34:19.515Z,4296
2018-03-25T08:35:28.353Z,4300
2018-03-25T08:36:37.185Z,4288
2018-03-25T08:37:46.018Z,4324
2018-03-25T08:38:54.854Z,4396
2018-03-25T08:40:03.785Z,4420
2018-03-25T08:41:12.901Z,4420
2018-03-25T08:42:21.735Z,4432
2018-03-25T08:43:30.844Z,4440
2018-03-25T08:44:39.680Z,4416
2018-03-25T08:45:48.813Z,4400
2018-03-25T08:46:57.651Z,4392
2018-03-25T08:48:06.798Z,4440
2018-03-25T08:49:15.915Z,4528
2018-03-25T08:50:24.752Z,4632
2018-03-25T08:51:33.581Z,4696
2018-03-25T08:52:42.414Z,4728
2018-03-25T08:53:51.530Z,4744
2018-03-25T08:55:00.365Z,4756
2018-03-25T08:56:09.203Z,4776
2018-03-25T08:57:18.372Z,4824
2018-03-25T08:58:27.199Z,4900
2018-03-25T08:59:36.034Z,4980
2018-03-25T09:00:44.868Z,5040
2018-03-25T09:01:53.704Z,5032
2018-03-25T09:03:02.819Z,5020
2018-03-25T09:04:11.653Z,4988
2018-03-25T09:05:20.485Z,4960
2018-03-25T09:06:29.598Z,5000
2018-03-25T09:07:38.434Z,5096
2018-03-25T09:08:47.572Z,5192
2018-03-25T09:09:56.407Z,5232
2018-03-25T09:11:05.247Z,5208
2018-03-25T09:12:14.078Z,5188
2018-03-25T09:13:22.915Z,5200
2018-03-25T09:14:31.897Z,5252
2018-03-25T09:15:40.733Z,5288
2018-03-25T09:16:49.566Z,5288
2018-03-25T09:17:58.402Z,5332
2018-03-25T09:19:07.238Z,5364
2018-03-25T09:20:16.073Z,5384
2018-03-25T09:21:24.906Z,5420
2018-03-25T09:22:33.743Z,5608
2018-03-25T09:23:42.579Z,5856
2018-03-25T09:24:51.692Z,6080
2018-03-25T09:26:00.675Z,6228
2018-03-25T09:27:09.510Z,6312
2018-03-25T09:28:18.348Z,6312
2018-03-25T09:29:27.457Z,6356
2018-03-25T09:30:36.296Z,6408
2018-03-25T09:31:45.280Z,6396
2018-03-25T09:32:54.114Z,6440
2018-03-25T09:34:03.506Z,6456
2018-03-25T09:35:12.343Z,6500
2018-03-25T09:36:21.178Z,6512
2018-03-25T09:37:30.013Z,6512
2018-03-25T09:38:38.846Z,6536
2018-03-25T09:39:47.682Z,6592
2018-03-25T09:40:56.518Z,6648
2018-03-25T09:42:05.355Z,6660
2018-03-25T09:43:14.292Z,6736
2018-03-25T09:44:23.130Z,6852
2018-03-25T09:45:31.965Z,6880
2018-03-25T09:46:40.803Z,6812
2018-03-25T09:47:49.636Z,6800
2018-03-25T09:48:58.523Z,6792
2018-03-25T09:50:07.637Z,6796
2018-03-25T09:51:16.473Z,6800
2018-03-25T09:52:25.307Z,6808
2018-03-25T09:53:34.141Z,6812
2018-03-25T09:54:43.126Z,6780
2018-03-25T09:55:51.968Z,6688
2018-03-25T09:57:01.078Z,6612
2018-03-25T09:58:09.918Z,6588
2018-03-25T09:59:18.748Z,6616
2018-03-25T10:00:27.685Z,6676
2018-03-25T10:01:36.521Z,6680
2018-03-25T10:02:45.357Z,6628
2018-03-25T10:03:54.194Z,6596
2018-03-25T10:05:03.031Z,6728
2018-03-25T10:06:11.921Z,6956
2018-03-25T10:07:21.031Z,7096
2018-03-25T10:08:29.871Z,7124
2018-03-25T10:09:39.578Z,7172
2018-03-25T10:10:48.416Z,7256
2018-03-25T10:11:57.303Z,7296
2018-03-25T10:13:06.421Z,7284
2018-03-25T10:14:15.262Z,7288
2018-03-25T10:15:24.097Z,7376
2018-03-25T10:16:32.935Z,7564
2018-03-25T10:17:41.873Z,7648
2018-03-25T10:18:50.988Z,7672
2018-03-25T10:19:59.825Z,7740
2018-03-25T10:21:08.665Z,7804
2018-03-25T10:22:17.782Z,7900
2018-03-25T10:23:26.623Z,8036
2018-03-25T10:24:35.461Z,8204
2018-03-25T10:25:44.577Z,8320
2018-03-25T10:26:53.697Z,8292
2018-03-25T10:28:02.541Z,8288
2018-03-25T10:29:11.472Z,8300
2018-03-25T10:30:20.308Z,8320
2018-03-25T10:31:29.149Z,8392
2018-03-25T10:32:37.990Z,8424
2018-03-25T10:33:46.832Z,8432
2018-03-25T10:34:56.343Z,8500
2018-03-25T10:36:05.466Z,8612
2018-03-25T10:37:14.298Z,8732
2018-03-25T10:38:23.133Z,8888
2018-03-25T10:39:31.971Z,9088
2018-03-25T10:40:40.812Z,9240
2018-03-25T10:41:49.651Z,9368
2018-03-25T10:42:58.488Z,9552
2018-03-25T10:44:07.324Z,9708
2018-03-25T10:45:16.251Z,9844
2018-03-25T10:46:25.150Z,9924
2018-03-25T10:47:33.988Z,9932
2018-03-25T10:48:42.824Z,10028
2018-03-25T10:49:51.662Z,10096
2018-03-25T10:51:00.503Z,10196
2018-03-25T10:52:09.625Z,10332
2018-03-25T10:53:18.460Z,10416
2018-03-25T10:54:27.297Z,10384
2018-03-25T10:55:36.135Z,10364
2018-03-25T10:56:44.980Z,10428
2018-03-25T10:57:53.967Z,10600
2018-03-25T10:59:03.084Z,10816
2018-03-25T11:00:11.925Z,10932
2018-03-25T11:01:20.759Z,10904
2018-03-25T11:02:29.600Z,10720
2018-03-25T11:03:38.538Z,10660
2018-03-25T11:04:47.375Z,10692
2018-03-25T11:05:56.214Z,10676
2018-03-25T11:07:05.054Z,10796
2018-03-25T11:08:13.888Z,10872
2018-03-25T11:09:23.056Z,10796
2018-03-25T11:10:31.896Z,10828
2018-03-25T11:11:40.733Z,11016
2018-03-25T11:12:52.175Z,11116
2018-03-25T11:14:01.012Z,11096
2018-03-25T11:15:10.001Z,11240
2018-03-25T11:16:18.838Z,11424
2018-03-25T11:17:27.677Z,11380
2018-03-25T11:18:36.515Z,11344
2018-03-25T11:19:45.354Z,11512
2018-03-25T11:20:54.291Z,11572
2018-03-25T11:22:03.131Z,11624
2018-03-25T11:23:11.968Z,11784
2018-03-25T11:24:20.808Z,11932
2018-03-25T11:25:29.650Z,11940
2018-03-25T11:26:38.787Z,11996
2018-03-25T11:27:47.629Z,12212
2018-03-25T11:28:56.465Z,12288
2018-03-25T11:30:05.307Z,12300
2018-03-25T11:31:14.147Z,12304
2018-03-25T11:32:23.089Z,12396
2018-03-25T11:33:31.934Z,12444
2018-03-25T11:34:40.776Z,12392
2018-03-25T11:35:49.612Z,12404
2018-03-25T11:36:58.453Z,12564
2018-03-25T11:38:07.630Z,12680
2018-03-25T11:39:16.472Z,12736
2018-03-25T11:40:25.307Z,12876
2018-03-25T11:41:34.146Z,13148
2018-03-25T11:42:42.986Z,13296
2018-03-25T11:43:51.879Z,13304
2018-03-25T11:45:00.717Z,13280
2018-03-25T11:46:09.832Z,13372
2018-03-25T11:47:18.673Z,13388
2018-03-25T11:48:27.511Z,13284
2018-03-25T11:49:36.651Z,13196
2018-03-25T11:50:45.492Z,13408
2018-03-25T11:51:54.333Z,13600
2018-03-25T11:53:03.172Z,13612
2018-03-25T11:54:12.296Z,13624
2018-03-25T11:55:21.137Z,13784
2018-03-25T11:56:29.975Z,13984
2018-03-25T11:57:38.815Z,14144
2018-03-25T11:58:47.657Z,14164
2018-03-25T11:59:56.498Z,14252
2018-03-25T12:01:05.389Z,14492
2018-03-25T12:02:14.226Z,14456
2018-03-25T12:03:23.070Z,14184
2018-03-25T12:04:31.910Z,14692
2018-03-25T12:05:40.750Z,13736
2018-03-25T12:06:49.744Z,13488
2018-03-25T12:07:58.579Z,13492
2018-03-25T12:09:07.692Z,13260
2018-03-25T12:10:16.532Z,13612
2018-03-25T12:11:25.374Z,13352
2018-03-25T12:12:34.365Z,14100
2018-03-25T12:13:43.206Z,13864
2018-03-25T12:14:52.072Z,14376
2018-03-25T12:16:00.890Z,14392
2018-03-25T12:17:09.728Z,13568
2018-03-25T12:18:18.618Z,12948
2018-03-25T12:19:27.461Z,12212
2018-03-25T12:20:36.299Z,11756
2018-03-25T12:21:45.419Z,11752
2018-03-25T12:22:54.260Z,11784
2018-03-25T12:24:03.256Z,11648
2018-03-25T12:25:12.096Z,11384
2018-03-25T12:26:20.930Z,10644
2018-03-25T12:27:29.771Z,10500
2018-03-25T12:28:38.613Z,10776
2018-03-25T12:29:47.554Z,10940
2018-03-25T12:30:56.394Z,10748
2018-03-25T12:32:05.235Z,10348
2018-03-25T12:33:14.093Z,9872
2018-03-25T12:34:22.917Z,9340
2018-03-25T12:35:31.757Z,8840
2018-03-25T12:36:40.875Z,8436
2018-03-25T12:37:49.720Z,8148
2018-03-25T12:38:58.553Z,7880
2018-03-25T12:40:07.392Z,7428
2018-03-25T12:41:16.381Z,7068
2018-03-25T12:42:25.220Z,6964
2018-03-25T12:43:34.060Z,7080
2018-03-25T12:44:43.205Z,7304
2018-03-25T12:45:52.350Z,7540
2018-03-25T12:47:01.490Z,7808
2018-03-25T12:48:10.329Z,8080
2018-03-25T12:49:19.166Z,8296
2018-03-25T12:50:28.011Z,8496
2018-03-25T12:51:37.126Z,8732
2018-03-25T12:52:46.119Z,9124
2018-03-25T12:53:55.244Z,9460
2018-03-25T12:55:04.126Z,9648
2018-03-25T12:56:12.922Z,9592
2018-03-25T12:57:21.762Z,9084
2018-03-25T12:58:30.653Z,8376
2018-03-25T12:59:39.489Z,7888
2018-03-25T13:00:48.331Z,7456
2018-03-25T13:01:57.171Z,7120
2018-03-25T13:03:06.010Z,6900
2018-03-25T13:04:14.951Z,6752
2018-03-25T13:05:24.068Z,6616
2018-03-25T13:06:32.908Z,6420
2018-03-25T13:07:41.745Z,6228
2018-03-25T13:08:50.583Z,6096
2018-03-25T13:09:59.723Z,5976
2018-03-25T13:11:08.566Z,5880
2018-03-25T13:12:17.681Z,5816
2018-03-25T13:13:26.797Z,5784
2018-03-25T13:14:35.638Z,5792
2018-03-25T13:15:44.624Z,5832
2018-03-25T13:16:53.468Z,5936
2018-03-25T13:18:02.313Z,6192
2018-03-25T13:19:11.143Z,6564
2018-03-25T13:20:19.986Z,6804
2018-03-25T13:21:29.069Z,7364
2018-03-25T13:22:37.907Z,8292
2018-03-25T13:23:47.025Z,9432
2018-03-25T13:24:55.864Z,10516
2018-03-25T13:26:04.983Z,11788
2018-03-25T13:27:13.871Z,12676
2018-03-25T13:28:22.710Z,13048
2018-03-25T13:29:31.546Z,12916
2018-03-25T13:30:40.669Z,11248
2018-03-25T13:31:49.506Z,9480
2018-03-25T13:32:58.446Z,9180
2018-03-25T13:34:07.566Z,9308
2018-03-25T13:35:16.401Z,9728
2018-03-25T13:36:25.244Z,10140
2018-03-25T13:37:34.082Z,10208
2018-03-25T13:38:42.919Z,9856
2018-03-25T13:39:51.766Z,9452
2018-03-25T13:41:00.879Z,8860
2018-03-25T13:42:09.992Z,8036
2018-03-25T13:43:18.834Z,7152
2018-03-25T13:44:27.767Z,6724
2018-03-25T13:45:36.604Z,6288
2018-03-25T13:46:45.443Z,5980
2018-03-25T13:47:54.283Z,5876
2018-03-25T13:49:03.121Z,5980
2018-03-25T13:50:12.237Z,6416
2018-03-25T13:51:21.077Z,6716
2018-03-25T13:52:30.197Z,6508
2018-03-25T13:53:39.038Z,6032
2018-03-25T13:54:47.883Z,5576
2018-03-25T13:55:56.718Z,5100
2018-03-25T13:57:05.558Z,4760
2018-03-25T13:58:14.673Z,4652
2018-03-25T13:59:23.509Z,4648
2018-03-25T14:00:32.346Z,4708
2018-03-25T14:01:41.285Z,4992
2018-03-25T14:02:50.126Z,5456
2018-03-25T14:03:58.964Z,5996
2018-03-25T14:05:07.802Z,6460
2018-03-25T14:06:16.644Z,6712
2018-03-25T14:07:26.186Z,6696
2018-03-25T14:08:35.306Z,6516
2018-03-25T14:09:44.145Z,6324
2018-03-25T14:10:52.983Z,6096
2018-03-25T14:12:01.831Z,5892
2018-03-25T14:13:10.718Z,5744
2018-03-25T14:14:19.553Z,5768
2018-03-25T14:15:28.387Z,5924
2018-03-25T14:16:37.225Z,6112
2018-03-25T14:17:46.062Z,6248
2018-03-25T14:18:54.900Z,6188
2018-03-25T14:20:03.738Z,5988
2018-03-25T14:21:12.579Z,5748
2018-03-25T14:22:21.417Z,5488
2018-03-25T14:23:30.529Z,5320
2018-03-25T14:24:39.418Z,5212
2018-03-25T14:25:48.539Z,5188
2018-03-25T14:26:57.376Z,5248
2018-03-25T14:28:06.211Z,5388
2018-03-25T14:29:15.050Z,5560
2018-03-25T14:30:23.936Z,5744
2018-03-25T14:31:32.772Z,5820
2018-03-25T14:32:41.610Z,5896
2018-03-25T14:33:50.451Z,6140
2018-03-25T14:34:59.569Z,6604
2018-03-25T14:36:08.409Z,7224
2018-03-25T14:37:17.524Z,7920
2018-03-25T14:38:26.369Z,8672
2018-03-25T14:39:35.206Z,8832
2018-03-25T14:40:44.045Z,7824
2018-03-25T14:41:53.036Z,6900
2018-03-25T14:43:01.874Z,6244
2018-03-25T14:44:10.990Z,5728
2018-03-25T14:45:19.826Z,5376
2018-03-25T14:46:28.664Z,5036
2018-03-25T14:47:37.630Z,4740
2018-03-25T14:48:46.394Z,4496
2018-03-25T14:49:55.230Z,4284
2018-03-25T14:51:04.068Z,4124
2018-03-25T14:52:12.907Z,4040
2018-03-25T14:53:21.744Z,4028
2018-03-25T14:54:30.581Z,4048
2018-03-25T14:55:39.420Z,4044
2018-03-25T14:56:48.259Z,4020
2018-03-25T14:57:57.097Z,3916
2018-03-25T14:59:06.083Z,3780
2018-03-25T15:00:14.919Z,3684
2018-03-25T15:01:23.758Z,3548
2018-03-25T15:02:32.601Z,3432
2018-03-25T15:03:41.431Z,3356
2018-03-25T15:04:50.570Z,3312
2018-03-25T15:05:59.408Z,3312
2018-03-25T15:07:08.525Z,3308
2018-03-25T15:08:17.639Z,3288
2018-03-25T15:09:26.477Z,3232
2018-03-25T15:10:35.466Z,3148
2018-03-25T15:11:44.865Z,3064
2018-03-25T15:12:53.702Z,3004
2018-03-25T15:14:02.537Z,2956
2018-03-25T15:15:11.375Z,2924
2018-03-25T15:16:20.463Z,2872
2018-03-25T15:17:29.301Z,2800
2018-03-25T15:18:38.136Z,2788
2018-03-25T15:19:46.974Z,2804
2018-03-25T15:20:55.815Z,2824
2018-03-25T15:22:04.752Z,2884
2018-03-25T15:23:13.589Z,2848
2018-03-25T15:24:22.705Z,2804
2018-03-25T15:25:31.541Z,2744
2018-03-25T15:26:40.377Z,2664
2018-03-25T15:27:49.489Z,2636
2018-03-25T15:28:58.327Z,2724
2018-03-25T15:30:07.164Z,2708
2018-03-25T15:31:16.062Z,2672
2018-03-25T15:32:24.835Z,2712
2018-03-25T15:33:33.820Z,2772
2018-03-25T15:34:42.655Z,2768
2018-03-25T15:35:51.492Z,2712
2018-03-25T15:37:00.330Z,2612
2018-03-25T15:38:09.311Z,2640
2018-03-25T15:39:18.318Z,2656
2018-03-25T15:40:27.432Z,2756
2018-03-25T15:41:36.302Z,2688
2018-03-25T15:42:45.104Z,2628
2018-03-25T15:43:53.940Z,2600
2018-03-25T15:45:02.778Z,2552
2018-03-25T15:46:11.615Z,2496
2018-03-25T15:47:20.725Z,2480